sensor_id;sensor_type;location;lat;lon;timestamp;P1;durP1;ratioP1;P2;durP2;ratioP2
40997;SDS011;26740;45.944;12.480;2022-09-25T00:00:12;9.05;;;5.57;;
40997;SDS011;26740;45.944;12.480;2022-09-25T00:02:38;9.13;;;5.40;;
40997;SDS011;26740;45.944;12.480;2022-09-25T00:05:04;7.15;;;4.95;;
40997;SDS011;26740;45.944;12.480;2022-09-25T00:07:30;11.27;;;5.57;;
40997;SDS011;26740;45.944;12.480;2022-09-25T00:09:56;10.45;;;5.40;;
40997;SDS011;26740;45.944;12.480;2022-09-25T00:12:21;11.13;;;6.82;;
40997;SDS011;26740;45.944;12.480;2022-09-25T00:14:50;11.10;;;6.00;;
40997;SDS011;26740;45.944;12.480;2022-09-25T00:17:16;6.82;;;5.20;;
40997;SDS011;26740;45.944;12.480;2022-09-25T00:19:42;9.18;;;5.93;;
40997;SDS011;26740;45.944;12.480;2022-09-25T00:22:14;7.38;;;5.20;;
40997;SDS011;26740;45.944;12.480;2022-09-25T00:24:40;7.45;;;4.88;;
40997;SDS011;26740;45.944;12.480;2022-09-25T00:27:06;5.57;;;4.80;;
40997;SDS011;26740;45.944;12.480;2022-09-25T00:29:34;11.20;;;5.55;;
40997;SDS011;26740;45.944;12.480;2022-09-25T00:32:01;10.50;;;5.47;;
40997;SDS011;26740;45.944;12.480;2022-09-25T00:34:27;7.00;;;5.30;;
40997;SDS011;26740;45.944;12.480;2022-09-25T00:36:53;6.60;;;4.55;;
40997;SDS011;26740;45.944;12.480;2022-09-25T00:39:19;8.57;;;4.68;;
40997;SDS011;26740;45.944;12.480;2022-09-25T00:41:45;5.70;;;4.43;;
40997;SDS011;26740;45.944;12.480;2022-09-25T00:47:16;6.95;;;4.43;;
40997;SDS011;26740;45.944;12.480;2022-09-25T00:49:46;8.73;;;4.75;;
40997;SDS011;26740;45.944;12.480;2022-09-25T00:52:12;5.18;;;4.55;;
40997;SDS011;26740;45.944;12.480;2022-09-25T00:57:37;7.18;;;4.00;;
40997;SDS011;26740;45.944;12.480;2022-09-25T01:00:07;4.32;;;3.63;;
40997;SDS011;26740;45.944;12.480;2022-09-25T01:02:38;8.63;;;4.05;;
40997;SDS011;26740;45.944;12.480;2022-09-25T01:07:40;8.82;;;3.90;;
40997;SDS011;26740;45.944;12.480;2022-09-25T01:10:08;5.63;;;3.67;;
40997;SDS011;26740;45.944;12.480;2022-09-25T01:12:35;10.77;;;3.33;;
40997;SDS011;26740;45.944;12.480;2022-09-25T01:15:11;4.30;;;3.08;;
40997;SDS011;26740;45.944;12.480;2022-09-25T01:23:29;4.65;;;2.78;;
40997;SDS011;26740;45.944;12.480;2022-09-25T01:31:10;4.93;;;2.60;;
40997;SDS011;26740;45.944;12.480;2022-09-25T01:33:44;3.72;;;2.33;;
40997;SDS011;26740;45.944;12.480;2022-09-25T01:38:55;3.30;;;3.00;;
40997;SDS011;26740;45.944;12.480;2022-09-25T01:41:34;3.88;;;2.30;;
40997;SDS011;26740;45.944;12.480;2022-09-25T01:44:42;3.15;;;2.78;;
40997;SDS011;26740;45.944;12.480;2022-09-25T01:47:14;2.90;;;2.40;;
40997;SDS011;26740;45.944;12.480;2022-09-25T01:49:59;3.95;;;2.95;;
40997;SDS011;26740;45.944;12.480;2022-09-25T01:52:32;2.90;;;2.58;;
40997;SDS011;26740;45.944;12.480;2022-09-25T01:55:08;2.90;;;2.42;;
40997;SDS011;26740;45.944;12.480;2022-09-25T02:01:14;3.75;;;2.13;;
40997;SDS011;26740;45.944;12.480;2022-09-25T02:03:51;2.85;;;2.03;;
40997;SDS011;26740;45.944;12.480;2022-09-25T02:06:29;8.80;;;1.85;;
40997;SDS011;26740;45.944;12.480;2022-09-25T02:09:01;3.90;;;1.83;;
40997;SDS011;26740;45.944;12.480;2022-09-25T02:11:32;2.80;;;2.03;;
40997;SDS011;26740;45.944;12.480;2022-09-25T02:14:03;3.45;;;1.98;;
40997;SDS011;26740;45.944;12.480;2022-09-25T02:16:39;4.50;;;2.20;;
40997;SDS011;26740;45.944;12.480;2022-09-25T02:19:08;5.65;;;1.65;;
40997;SDS011;26740;45.944;12.480;2022-09-25T02:22:09;1.65;;;1.55;;
40997;SDS011;26740;45.944;12.480;2022-09-25T02:24:52;1.30;;;1.20;;
40997;SDS011;26740;45.944;12.480;2022-09-25T02:27:24;1.55;;;1.13;;
40997;SDS011;26740;45.944;12.480;2022-09-25T02:29:51;1.25;;;0.75;;
40997;SDS011;26740;45.944;12.480;2022-09-25T02:32:21;1.10;;;1.00;;
40997;SDS011;26740;45.944;12.480;2022-09-25T02:34:58;0.65;;;0.50;;
40997;SDS011;26740;45.944;12.480;2022-09-25T02:37:25;0.60;;;0.50;;
40997;SDS011;26740;45.944;12.480;2022-09-25T02:39:51;0.60;;;0.60;;
40997;SDS011;26740;45.944;12.480;2022-09-25T02:45:44;0.95;;;0.80;;
40997;SDS011;26740;45.944;12.480;2022-09-25T02:48:30;2.00;;;1.20;;
40997;SDS011;26740;45.944;12.480;2022-09-25T02:51:09;2.03;;;1.40;;
40997;SDS011;26740;45.944;12.480;2022-09-25T02:56:32;1.85;;;1.75;;
40997;SDS011;26740;45.944;12.480;2022-09-25T02:59:13;4.55;;;2.20;;
40997;SDS011;26740;45.944;12.480;2022-09-25T03:01:45;2.28;;;2.08;;
40997;SDS011;26740;45.944;12.480;2022-09-25T03:04:12;2.17;;;1.98;;
40997;SDS011;26740;45.944;12.480;2022-09-25T03:06:41;1.60;;;1.50;;
40997;SDS011;26740;45.944;12.480;2022-09-25T03:09:08;3.72;;;2.40;;
40997;SDS011;26740;45.944;12.480;2022-09-25T03:11:37;4.30;;;2.25;;
40997;SDS011;26740;45.944;12.480;2022-09-25T03:14:05;3.22;;;1.85;;
40997;SDS011;26740;45.944;12.480;2022-09-25T03:16:43;1.85;;;1.75;;
40997;SDS011;26740;45.944;12.480;2022-09-25T03:19:13;2.40;;;2.15;;
40997;SDS011;26740;45.944;12.480;2022-09-25T03:21:40;2.10;;;1.85;;
40997;SDS011;26740;45.944;12.480;2022-09-25T03:24:06;3.05;;;2.05;;
40997;SDS011;26740;45.944;12.480;2022-09-25T03:26:31;2.00;;;1.80;;
40997;SDS011;26740;45.944;12.480;2022-09-25T03:28:57;3.03;;;1.98;;
40997;SDS011;26740;45.944;12.480;2022-09-25T03:31:27;1.77;;;1.67;;
40997;SDS011;26740;45.944;12.480;2022-09-25T03:33:54;2.28;;;2.13;;
40997;SDS011;26740;45.944;12.480;2022-09-25T03:36:21;1.90;;;1.30;;
40997;SDS011;26740;45.944;12.480;2022-09-25T03:38:50;2.80;;;1.20;;
40997;SDS011;26740;45.944;12.480;2022-09-25T03:41:18;3.85;;;1.27;;
40997;SDS011;26740;45.944;12.480;2022-09-25T03:43:46;1.00;;;0.90;;
40997;SDS011;26740;45.944;12.480;2022-09-25T03:46:16;1.63;;;0.90;;
40997;SDS011;26740;45.944;12.480;2022-09-25T03:48:44;3.03;;;0.85;;
40997;SDS011;26740;45.944;12.480;2022-09-25T03:51:11;1.13;;;1.02;;
40997;SDS011;26740;45.944;12.480;2022-09-25T03:53:37;2.17;;;0.98;;
40997;SDS011;26740;45.944;12.480;2022-09-25T03:56:08;1.52;;;1.10;;
40997;SDS011;26740;45.944;12.480;2022-09-25T03:58:36;1.00;;;0.98;;
40997;SDS011;26740;45.944;12.480;2022-09-25T04:01:03;1.02;;;0.90;;
40997;SDS011;26740;45.944;12.480;2022-09-25T04:03:30;1.17;;;1.08;;
40997;SDS011;26740;45.944;12.480;2022-09-25T04:05:59;1.45;;;0.77;;
40997;SDS011;26740;45.944;12.480;2022-09-25T04:08:26;1.27;;;0.68;;
40997;SDS011;26740;45.944;12.480;2022-09-25T04:10:53;1.45;;;0.82;;
40997;SDS011;26740;45.944;12.480;2022-09-25T04:13:23;2.80;;;0.68;;
40997;SDS011;26740;45.944;12.480;2022-09-25T04:15:49;1.08;;;1.08;;
40997;SDS011;26740;45.944;12.480;2022-09-25T04:18:15;2.92;;;1.23;;
40997;SDS011;26740;45.944;12.480;2022-09-25T04:20:41;1.23;;;1.13;;
40997;SDS011;26740;45.944;12.480;2022-09-25T04:23:07;1.45;;;1.17;;
40997;SDS011;26740;45.944;12.480;2022-09-25T04:25:32;3.22;;;1.63;;
40997;SDS011;26740;45.944;12.480;2022-09-25T04:27:58;3.70;;;1.10;;
40997;SDS011;26740;45.944;12.480;2022-09-25T04:30:25;1.60;;;1.10;;
40997;SDS011;26740;45.944;12.480;2022-09-25T04:32:51;1.75;;;1.65;;
40997;SDS011;26740;45.944;12.480;2022-09-25T04:35:36;2.40;;;2.10;;
40997;SDS011;26740;45.944;12.480;2022-09-25T04:38:02;3.47;;;3.17;;
40997;SDS011;26740;45.944;12.480;2022-09-25T04:40:28;5.72;;;3.42;;
40997;SDS011;26740;45.944;12.480;2022-09-25T04:42:58;3.97;;;3.42;;
40997;SDS011;26740;45.944;12.480;2022-09-25T04:45:25;3.80;;;3.45;;
40997;SDS011;26740;45.944;12.480;2022-09-25T04:47:52;3.20;;;3.00;;
40997;SDS011;26740;45.944;12.480;2022-09-25T04:50:19;4.30;;;3.28;;
40997;SDS011;26740;45.944;12.480;2022-09-25T04:52:46;4.00;;;3.60;;
40997;SDS011;26740;45.944;12.480;2022-09-25T04:55:15;3.00;;;2.80;;
40997;SDS011;26740;45.944;12.480;2022-09-25T04:57:51;3.22;;;2.58;;
40997;SDS011;26740;45.944;12.480;2022-09-25T05:02:47;3.17;;;2.67;;
40997;SDS011;26740;45.944;12.480;2022-09-25T05:05:13;2.72;;;2.25;;
40997;SDS011;26740;45.944;12.480;2022-09-25T05:07:49;2.58;;;2.35;;
40997;SDS011;26740;45.944;12.480;2022-09-25T05:10:16;3.85;;;2.38;;
40997;SDS011;26740;45.944;12.480;2022-09-25T05:12:42;2.58;;;2.10;;
40997;SDS011;26740;45.944;12.480;2022-09-25T05:15:08;2.22;;;2.08;;
40997;SDS011;26740;45.944;12.480;2022-09-25T05:17:34;3.25;;;2.05;;
40997;SDS011;26740;45.944;12.480;2022-09-25T05:20:00;2.95;;;2.33;;
40997;SDS011;26740;45.944;12.480;2022-09-25T05:22:27;3.20;;;2.10;;
40997;SDS011;26740;45.944;12.480;2022-09-25T05:24:53;2.08;;;1.90;;
40997;SDS011;26740;45.944;12.480;2022-09-25T05:27:19;2.15;;;1.60;;
40997;SDS011;26740;45.944;12.480;2022-09-25T05:29:46;1.70;;;1.60;;
40997;SDS011;26740;45.944;12.480;2022-09-25T05:32:13;2.33;;;1.90;;
40997;SDS011;26740;45.944;12.480;2022-09-25T05:34:40;3.90;;;1.50;;
40997;SDS011;26740;45.944;12.480;2022-09-25T05:37:05;1.80;;;1.42;;
40997;SDS011;26740;45.944;12.480;2022-09-25T05:39:31;1.75;;;1.13;;
40997;SDS011;26740;45.944;12.480;2022-09-25T05:41:57;1.95;;;1.48;;
40997;SDS011;26740;45.944;12.480;2022-09-25T05:44:22;2.45;;;1.50;;
40997;SDS011;26740;45.944;12.480;2022-09-25T05:46:49;1.65;;;1.40;;
40997;SDS011;26740;45.944;12.480;2022-09-25T05:49:15;3.65;;;1.20;;
40997;SDS011;26740;45.944;12.480;2022-09-25T05:51:40;1.98;;;1.35;;
40997;SDS011;26740;45.944;12.480;2022-09-25T05:54:06;2.10;;;1.08;;
40997;SDS011;26740;45.944;12.480;2022-09-25T05:56:32;1.65;;;1.02;;
40997;SDS011;26740;45.944;12.480;2022-09-25T05:58:57;2.55;;;0.80;;
40997;SDS011;26740;45.944;12.480;2022-09-25T06:01:23;0.88;;;0.75;;
40997;SDS011;26740;45.944;12.480;2022-09-25T06:03:50;1.45;;;0.75;;
40997;SDS011;26740;45.944;12.480;2022-09-25T06:06:15;1.83;;;1.55;;
40997;SDS011;26740;45.944;12.480;2022-09-25T06:08:41;2.63;;;1.40;;
40997;SDS011;26740;45.944;12.480;2022-09-25T06:11:07;2.13;;;1.77;;
40997;SDS011;26740;45.944;12.480;2022-09-25T06:13:33;3.28;;;2.05;;
40997;SDS011;26740;45.944;12.480;2022-09-25T06:16:01;3.50;;;2.03;;
40997;SDS011;26740;45.944;12.480;2022-09-25T06:18:27;2.92;;;2.25;;
40997;SDS011;26740;45.944;12.480;2022-09-25T06:21:00;2.17;;;1.98;;
40997;SDS011;26740;45.944;12.480;2022-09-25T06:23:29;2.28;;;1.90;;
40997;SDS011;26740;45.944;12.480;2022-09-25T06:26:01;3.63;;;2.42;;
40997;SDS011;26740;45.944;12.480;2022-09-25T06:28:29;2.25;;;2.05;;
40997;SDS011;26740;45.944;12.480;2022-09-25T06:30:55;2.33;;;2.13;;
40997;SDS011;26740;45.944;12.480;2022-09-25T06:33:23;3.10;;;2.10;;
40997;SDS011;26740;45.944;12.480;2022-09-25T06:35:49;3.60;;;2.45;;
40997;SDS011;26740;45.944;12.480;2022-09-25T06:38:14;2.95;;;2.20;;
40997;SDS011;26740;45.944;12.480;2022-09-25T06:40:41;3.05;;;2.63;;
40997;SDS011;26740;45.944;12.480;2022-09-25T06:43:12;3.13;;;2.20;;
40997;SDS011;26740;45.944;12.480;2022-09-25T06:45:39;2.58;;;1.80;;
40997;SDS011;26740;45.944;12.480;2022-09-25T06:48:07;1.88;;;1.77;;
40997;SDS011;26740;45.944;12.480;2022-09-25T06:50:42;2.47;;;1.58;;
40997;SDS011;26740;45.944;12.480;2022-09-25T06:53:16;3.90;;;1.60;;
40997;SDS011;26740;45.944;12.480;2022-09-25T06:55:43;1.50;;;1.33;;
40997;SDS011;26740;45.944;12.480;2022-09-25T06:58:10;1.67;;;1.20;;
40997;SDS011;26740;45.944;12.480;2022-09-25T07:00:38;1.80;;;0.70;;
40997;SDS011;26740;45.944;12.480;2022-09-25T07:03:04;3.28;;;1.10;;
40997;SDS011;26740;45.944;12.480;2022-09-25T07:05:48;2.15;;;1.30;;
40997;SDS011;26740;45.944;12.480;2022-09-25T07:08:15;2.50;;;1.20;;
40997;SDS011;26740;45.944;12.480;2022-09-25T07:10:50;3.67;;;1.25;;
40997;SDS011;26740;45.944;12.480;2022-09-25T07:13:18;1.67;;;1.10;;
40997;SDS011;26740;45.944;12.480;2022-09-25T07:15:55;3.50;;;1.60;;
40997;SDS011;26740;45.944;12.480;2022-09-25T07:18:22;2.53;;;1.20;;
40997;SDS011;26740;45.944;12.480;2022-09-25T07:20:49;4.35;;;1.08;;
40997;SDS011;26740;45.944;12.480;2022-09-25T07:23:17;3.22;;;1.45;;
40997;SDS011;26740;45.944;12.480;2022-09-25T07:25:45;1.95;;;0.80;;
40997;SDS011;26740;45.944;12.480;2022-09-25T07:28:11;1.55;;;1.13;;
40997;SDS011;26740;45.944;12.480;2022-09-25T07:30:39;1.77;;;0.90;;
40997;SDS011;26740;45.944;12.480;2022-09-25T07:33:05;3.30;;;1.00;;
40997;SDS011;26740;45.944;12.480;2022-09-25T07:35:32;2.75;;;0.98;;
40997;SDS011;26740;45.944;12.480;2022-09-25T07:37:59;1.90;;;1.15;;
40997;SDS011;26740;45.944;12.480;2022-09-25T07:40:25;1.15;;;0.77;;
40997;SDS011;26740;45.944;12.480;2022-09-25T07:42:56;2.20;;;0.98;;
40997;SDS011;26740;45.944;12.480;2022-09-25T07:45:26;2.85;;;1.00;;
40997;SDS011;26740;45.944;12.480;2022-09-25T07:47:59;1.73;;;1.33;;
40997;SDS011;26740;45.944;12.480;2022-09-25T07:50:26;1.80;;;0.90;;
40997;SDS011;26740;45.944;12.480;2022-09-25T07:52:53;1.48;;;0.60;;
40997;SDS011;26740;45.944;12.480;2022-09-25T07:55:19;1.77;;;0.80;;
40997;SDS011;26740;45.944;12.480;2022-09-25T07:57:45;1.33;;;0.57;;
40997;SDS011;26740;45.944;12.480;2022-09-25T08:00:13;1.73;;;0.50;;
40997;SDS011;26740;45.944;12.480;2022-09-25T08:02:39;1.75;;;0.52;;
40997;SDS011;26740;45.944;12.480;2022-09-25T08:05:05;1.02;;;0.50;;
40997;SDS011;26740;45.944;12.480;2022-09-25T08:07:31;7.10;;;1.27;;
40997;SDS011;26740;45.944;12.480;2022-09-25T08:09:57;1.17;;;0.63;;
40997;SDS011;26740;45.944;12.480;2022-09-25T08:12:22;0.80;;;0.43;;
40997;SDS011;26740;45.944;12.480;2022-09-25T08:14:49;0.60;;;0.30;;
40997;SDS011;26740;45.944;12.480;2022-09-25T08:17:16;0.73;;;0.15;;
40997;SDS011;26740;45.944;12.480;2022-09-25T08:19:41;0.68;;;0.28;;
40997;SDS011;26740;45.944;12.480;2022-09-25T08:22:07;0.55;;;0.30;;
40997;SDS011;26740;45.944;12.480;2022-09-25T08:24:32;0.77;;;0.50;;
40997;SDS011;26740;45.944;12.480;2022-09-25T08:26:58;1.65;;;0.40;;
40997;SDS011;26740;45.944;12.480;2022-09-25T08:29:24;2.15;;;0.60;;
40997;SDS011;26740;45.944;12.480;2022-09-25T08:31:49;3.95;;;0.40;;
40997;SDS011;26740;45.944;12.480;2022-09-25T08:34:15;0.95;;;0.52;;
40997;SDS011;26740;45.944;12.480;2022-09-25T08:36:42;0.80;;;0.50;;
40997;SDS011;26740;45.944;12.480;2022-09-25T08:39:08;2.38;;;0.60;;
40997;SDS011;26740;45.944;12.480;2022-09-25T08:41:43;1.60;;;0.70;;
40997;SDS011;26740;45.944;12.480;2022-09-25T08:46:58;0.88;;;0.50;;
40997;SDS011;26740;45.944;12.480;2022-09-25T08:53:00;0.70;;;0.40;;
40997;SDS011;26740;45.944;12.480;2022-09-25T08:55:33;1.05;;;0.40;;
40997;SDS011;26740;45.944;12.480;2022-09-25T08:58:23;0.40;;;0.30;;
40997;SDS011;26740;45.944;12.480;2022-09-25T09:01:00;1.00;;;0.47;;
40997;SDS011;26740;45.944;12.480;2022-09-25T09:03:30;0.40;;;0.30;;
40997;SDS011;26740;45.944;12.480;2022-09-25T09:06:00;0.68;;;0.40;;
40997;SDS011;26740;45.944;12.480;2022-09-25T09:08:29;0.80;;;0.35;;
40997;SDS011;26740;45.944;12.480;2022-09-25T09:11:02;3.00;;;0.40;;
40997;SDS011;26740;45.944;12.480;2022-09-25T09:13:52;2.35;;;0.40;;
40997;SDS011;26740;45.944;12.480;2022-09-25T09:18:51;2.13;;;0.50;;
40997;SDS011;26740;45.944;12.480;2022-09-25T09:23:57;1.40;;;0.65;;
40997;SDS011;26740;45.944;12.480;2022-09-25T09:41:56;1.67;;;0.75;;
40997;SDS011;26740;45.944;12.480;2022-09-25T09:44:17;1.85;;;0.52;;
40997;SDS011;26740;45.944;12.480;2022-09-25T09:49:47;1.13;;;0.45;;
40997;SDS011;26740;45.944;12.480;2022-09-25T09:52:19;1.02;;;0.32;;
40997;SDS011;26740;45.944;12.480;2022-09-25T09:54:51;2.77;;;0.70;;
40997;SDS011;26740;45.944;12.480;2022-09-25T09:57:30;1.90;;;0.65;;
40997;SDS011;26740;45.944;12.480;2022-09-25T10:02:47;3.25;;;0.50;;
40997;SDS011;26740;45.944;12.480;2022-09-25T10:08:08;2.13;;;0.40;;
40997;SDS011;26740;45.944;12.480;2022-09-25T10:10:35;1.88;;;0.50;;
40997;SDS011;26740;45.944;12.480;2022-09-25T10:13:04;0.50;;;0.30;;
40997;SDS011;26740;45.944;12.480;2022-09-25T10:15:48;1.20;;;0.50;;
40997;SDS011;26740;45.944;12.480;2022-09-25T10:18:17;1.95;;;0.55;;
40997;SDS011;26740;45.944;12.480;2022-09-25T10:20:57;1.35;;;0.57;;
40997;SDS011;26740;45.944;12.480;2022-09-25T10:23:34;1.58;;;0.57;;
40997;SDS011;26740;45.944;12.480;2022-09-25T10:26:00;2.13;;;0.63;;
40997;SDS011;26740;45.944;12.480;2022-09-25T10:28:30;0.68;;;0.30;;
40997;SDS011;26740;45.944;12.480;2022-09-25T10:31:01;1.02;;;0.40;;
40997;SDS011;26740;45.944;12.480;2022-09-25T10:33:30;1.33;;;0.50;;
40997;SDS011;26740;45.944;12.480;2022-09-25T10:35:57;0.77;;;0.30;;
40997;SDS011;26740;45.944;12.480;2022-09-25T10:38:31;0.70;;;0.30;;
40997;SDS011;26740;45.944;12.480;2022-09-25T10:41:07;1.25;;;0.50;;
40997;SDS011;26740;45.944;12.480;2022-09-25T10:43:33;1.10;;;0.38;;
40997;SDS011;26740;45.944;12.480;2022-09-25T10:46:06;1.30;;;0.40;;
40997;SDS011;26740;45.944;12.480;2022-09-25T10:48:37;2.95;;;0.30;;
40997;SDS011;26740;45.944;12.480;2022-09-25T10:51:22;1.15;;;0.50;;
40997;SDS011;26740;45.944;12.480;2022-09-25T10:53:55;0.80;;;0.47;;
40997;SDS011;26740;45.944;12.480;2022-09-25T10:56:36;2.35;;;0.55;;
40997;SDS011;26740;45.944;12.480;2022-09-25T10:59:08;1.45;;;0.50;;
40997;SDS011;26740;45.944;12.480;2022-09-25T11:01:41;2.63;;;0.40;;
40997;SDS011;26740;45.944;12.480;2022-09-25T11:04:19;1.45;;;0.60;;
40997;SDS011;26740;45.944;12.480;2022-09-25T11:06:54;2.22;;;0.40;;
40997;SDS011;26740;45.944;12.480;2022-09-25T11:09:22;0.90;;;0.40;;
40997;SDS011;26740;45.944;12.480;2022-09-25T11:11:51;0.73;;;0.50;;
40997;SDS011;26740;45.944;12.480;2022-09-25T11:14:31;2.65;;;0.50;;
40997;SDS011;26740;45.944;12.480;2022-09-25T11:17:00;1.50;;;0.50;;
40997;SDS011;26740;45.944;12.480;2022-09-25T11:19:34;1.23;;;0.40;;
40997;SDS011;26740;45.944;12.480;2022-09-25T11:27:34;0.95;;;0.40;;
40997;SDS011;26740;45.944;12.480;2022-09-25T11:30:21;1.42;;;0.50;;
40997;SDS011;26740;45.944;12.480;2022-09-25T11:35:49;0.73;;;0.40;;
40997;SDS011;26740;45.944;12.480;2022-09-25T11:41:30;1.00;;;0.70;;
40997;SDS011;26740;45.944;12.480;2022-09-25T11:44:16;0.93;;;0.52;;
40997;SDS011;26740;45.944;12.480;2022-09-25T11:47:28;1.98;;;0.98;;
40997;SDS011;26740;45.944;12.480;2022-09-25T11:50:01;2.13;;;0.90;;
40997;SDS011;26740;45.944;12.480;2022-09-25T11:52:29;1.70;;;0.70;;
40997;SDS011;26740;45.944;12.480;2022-09-25T12:01:47;1.85;;;0.50;;
40997;SDS011;26740;45.944;12.480;2022-09-25T12:12:14;1.00;;;0.50;;
40997;SDS011;26740;45.944;12.480;2022-09-25T12:22:40;1.35;;;0.88;;
40997;SDS011;26740;45.944;12.480;2022-09-25T12:25:28;1.63;;;0.50;;
40997;SDS011;26740;45.944;12.480;2022-09-25T12:28:11;1.48;;;1.10;;
40997;SDS011;26740;45.944;12.480;2022-09-25T12:33:30;2.15;;;1.15;;
40997;SDS011;26740;45.944;12.480;2022-09-25T12:49:09;2.63;;;2.03;;
40997;SDS011;26740;45.944;12.480;2022-09-25T12:51:39;3.47;;;1.98;;
40997;SDS011;26740;45.944;12.480;2022-09-25T12:54:25;4.80;;;1.85;;
40997;SDS011;26740;45.944;12.480;2022-09-25T13:03:07;2.22;;;1.70;;
40997;SDS011;26740;45.944;12.480;2022-09-25T13:09:26;4.20;;;1.73;;
40997;SDS011;26740;45.944;12.480;2022-09-25T13:11:54;2.60;;;1.67;;
40997;SDS011;26740;45.944;12.480;2022-09-25T13:17:11;2.15;;;1.42;;
40997;SDS011;26740;45.944;12.480;2022-09-25T13:19:39;3.75;;;2.20;;
40997;SDS011;26740;45.944;12.480;2022-09-25T13:22:21;2.00;;;1.73;;
40997;SDS011;26740;45.944;12.480;2022-09-25T13:24:51;3.42;;;2.42;;
40997;SDS011;26740;45.944;12.480;2022-09-25T13:27:26;4.47;;;1.83;;
40997;SDS011;26740;45.944;12.480;2022-09-25T13:29:58;2.15;;;1.33;;
40997;SDS011;26740;45.944;12.480;2022-09-25T13:32:26;4.88;;;2.45;;
40997;SDS011;26740;45.944;12.480;2022-09-25T13:35:02;4.13;;;2.53;;
40997;SDS011;26740;45.944;12.480;2022-09-25T13:37:32;3.70;;;2.28;;
40997;SDS011;26740;45.944;12.480;2022-09-25T13:40:00;2.10;;;1.90;;
40997;SDS011;26740;45.944;12.480;2022-09-25T13:42:52;4.97;;;2.15;;
40997;SDS011;26740;45.944;12.480;2022-09-25T13:45:32;2.85;;;2.65;;
40997;SDS011;26740;45.944;12.480;2022-09-25T13:50:43;3.35;;;2.08;;
40997;SDS011;26740;45.944;12.480;2022-09-25T13:53:12;2.13;;;1.92;;
40997;SDS011;26740;45.944;12.480;2022-09-25T13:58:18;2.55;;;2.35;;
40997;SDS011;26740;45.944;12.480;2022-09-25T14:05:57;4.38;;;2.45;;
40997;SDS011;26740;45.944;12.480;2022-09-25T14:08:24;3.08;;;2.70;;
40997;SDS011;26740;45.944;12.480;2022-09-25T14:10:53;2.58;;;2.17;;
40997;SDS011;26740;45.944;12.480;2022-09-25T14:13:21;2.13;;;1.90;;
40997;SDS011;26740;45.944;12.480;2022-09-25T14:15:50;3.17;;;2.05;;
40997;SDS011;26740;45.944;12.480;2022-09-25T14:18:25;2.70;;;1.65;;
40997;SDS011;26740;45.944;12.480;2022-09-25T14:20:59;4.35;;;2.38;;
40997;SDS011;26740;45.944;12.480;2022-09-25T14:23:28;1.95;;;1.83;;
40997;SDS011;26740;45.944;12.480;2022-09-25T14:25:58;4.57;;;1.20;;
40997;SDS011;26740;45.944;12.480;2022-09-25T14:28:29;2.45;;;1.45;;
40997;SDS011;26740;45.944;12.480;2022-09-25T14:31:01;2.40;;;1.38;;
40997;SDS011;26740;45.944;12.480;2022-09-25T14:47:55;4.00;;;1.70;;
40997;SDS011;26740;45.944;12.480;2022-09-25T14:50:28;2.78;;;1.67;;
40997;SDS011;26740;45.944;12.480;2022-09-25T14:52:58;2.75;;;1.38;;
40997;SDS011;26740;45.944;12.480;2022-09-25T14:55:27;1.77;;;1.10;;
40997;SDS011;26740;45.944;12.480;2022-09-25T14:57:59;1.92;;;1.08;;
40997;SDS011;26740;45.944;12.480;2022-09-25T15:00:26;13.43;;;2.53;;
40997;SDS011;26740;45.944;12.480;2022-09-25T15:02:53;5.10;;;1.98;;
40997;SDS011;26740;45.944;12.480;2022-09-25T15:07:48;3.70;;;1.27;;
40997;SDS011;26740;45.944;12.480;2022-09-25T15:10:24;3.83;;;1.40;;
40997;SDS011;26740;45.944;12.480;2022-09-25T15:13:28;2.40;;;1.42;;
40997;SDS011;26740;45.944;12.480;2022-09-25T15:15:47;3.70;;;1.77;;
40997;SDS011;26740;45.944;12.480;2022-09-25T15:18:37;1.88;;;1.23;;
40997;SDS011;26740;45.944;12.480;2022-09-25T15:21:13;2.17;;;1.48;;
40997;SDS011;26740;45.944;12.480;2022-09-25T15:23:47;3.88;;;1.40;;
40997;SDS011;26740;45.944;12.480;2022-09-25T15:26:14;3.05;;;2.08;;
40997;SDS011;26740;45.944;12.480;2022-09-25T15:28:42;1.67;;;1.00;;
40997;SDS011;26740;45.944;12.480;2022-09-25T15:31:09;3.22;;;1.67;;
40997;SDS011;26740;45.944;12.480;2022-09-25T15:33:36;3.90;;;1.65;;
40997;SDS011;26740;45.944;12.480;2022-09-25T15:38:44;2.78;;;1.40;;
40997;SDS011;26740;45.944;12.480;2022-09-25T15:41:20;2.75;;;1.10;;
40997;SDS011;26740;45.944;12.480;2022-09-25T15:43:48;4.70;;;2.55;;
40997;SDS011;26740;45.944;12.480;2022-09-25T15:46:26;2.97;;;2.45;;
40997;SDS011;26740;45.944;12.480;2022-09-25T15:48:53;4.72;;;1.63;;
40997;SDS011;26740;45.944;12.480;2022-09-25T15:51:23;1.75;;;1.65;;
40997;SDS011;26740;45.944;12.480;2022-09-25T15:53:55;2.58;;;1.60;;
40997;SDS011;26740;45.944;12.480;2022-09-25T15:56:27;2.03;;;1.80;;
40997;SDS011;26740;45.944;12.480;2022-09-25T16:01:26;2.63;;;1.48;;
40997;SDS011;26740;45.944;12.480;2022-09-25T16:07:18;2.55;;;1.52;;
40997;SDS011;26740;45.944;12.480;2022-09-25T16:09:47;4.18;;;1.45;;
40997;SDS011;26740;45.944;12.480;2022-09-25T16:14:44;2.78;;;1.20;;
40997;SDS011;26740;45.944;12.480;2022-09-25T16:17:53;2.70;;;1.33;;
40997;SDS011;26740;45.944;12.480;2022-09-25T16:22:49;1.10;;;0.77;;
40997;SDS011;26740;45.944;12.480;2022-09-25T16:25:27;1.50;;;1.23;;
40997;SDS011;26740;45.944;12.480;2022-09-25T16:28:00;1.25;;;1.15;;
40997;SDS011;26740;45.944;12.480;2022-09-25T16:30:32;3.90;;;1.38;;
40997;SDS011;26740;45.944;12.480;2022-09-25T16:33:03;1.73;;;1.05;;
40997;SDS011;26740;45.944;12.480;2022-09-25T16:35:36;1.17;;;0.85;;
40997;SDS011;26740;45.944;12.480;2022-09-25T16:38:04;1.20;;;0.90;;
40997;SDS011;26740;45.944;12.480;2022-09-25T16:40:30;2.35;;;1.17;;
40997;SDS011;26740;45.944;12.480;2022-09-25T16:43:02;1.60;;;1.02;;
40997;SDS011;26740;45.944;12.480;2022-09-25T16:45:57;1.70;;;0.70;;
40997;SDS011;26740;45.944;12.480;2022-09-25T16:48:29;1.73;;;0.60;;
40997;SDS011;26740;45.944;12.480;2022-09-25T16:51:00;1.65;;;0.20;;
40997;SDS011;26740;45.944;12.480;2022-09-25T16:53:26;0.57;;;0.20;;
40997;SDS011;26740;45.944;12.480;2022-09-25T16:55:53;2.85;;;1.90;;
40997;SDS011;26740;45.944;12.480;2022-09-25T16:58:22;31.55;;;20.33;;
40997;SDS011;26740;45.944;12.480;2022-09-25T17:00:48;13.23;;;8.20;;
40997;SDS011;26740;45.944;12.480;2022-09-25T17:03:14;14.85;;;10.23;;
40997;SDS011;26740;45.944;12.480;2022-09-25T17:05:40;17.52;;;11.35;;
40997;SDS011;26740;45.944;12.480;2022-09-25T17:08:19;1.98;;;0.98;;
40997;SDS011;26740;45.944;12.480;2022-09-25T17:10:49;2.17;;;0.40;;
40997;SDS011;26740;45.944;12.480;2022-09-25T17:13:17;1.70;;;0.32;;
40997;SDS011;26740;45.944;12.480;2022-09-25T17:15:48;1.50;;;0.28;;
40997;SDS011;26740;45.944;12.480;2022-09-25T17:18:15;1.00;;;0.20;;
40997;SDS011;26740;45.944;12.480;2022-09-25T17:20:43;1.38;;;0.30;;
40997;SDS011;26740;45.944;12.480;2022-09-25T17:23:09;0.68;;;0.13;;
40997;SDS011;26740;45.944;12.480;2022-09-25T17:25:52;0.95;;;0.30;;
40997;SDS011;26740;45.944;12.480;2022-09-25T17:28:19;2.65;;;0.20;;
40997;SDS011;26740;45.944;12.480;2022-09-25T17:30:44;1.60;;;0.20;;
40997;SDS011;26740;45.944;12.480;2022-09-25T17:33:14;1.38;;;0.30;;
40997;SDS011;26740;45.944;12.480;2022-09-25T17:38:20;0.73;;;0.30;;
40997;SDS011;26740;45.944;12.480;2022-09-25T17:40:46;1.13;;;0.30;;
40997;SDS011;26740;45.944;12.480;2022-09-25T17:45:50;3.97;;;0.60;;
40997;SDS011;26740;45.944;12.480;2022-09-25T17:48:21;1.02;;;0.50;;
40997;SDS011;26740;45.944;12.480;2022-09-25T17:50:49;4.47;;;0.45;;